sensor_id;sensor_type;location;lat;lon;timestamp;P1;durP1;ratioP1;P2;durP2;ratioP2
44456;SDS011;30159;49.316;8.558;2023-12-28T00:00:50;7.30;;;4.90;;
44456;SDS011;30159;49.316;8.558;2023-12-28T00:03:17;6.60;;;4.00;;
44456;SDS011;30159;49.316;8.558;2023-12-28T00:05:45;7.57;;;4.10;;
44456;SDS011;30159;49.316;8.558;2023-12-28T00:08:11;6.73;;;4.03;;
44456;SDS011;30159;49.316;8.558;2023-12-28T00:10:38;7.37;;;3.60;;
44456;SDS011;30159;49.316;8.558;2023-12-28T00:13:04;5.40;;;4.10;;
44456;SDS011;30159;49.316;8.558;2023-12-28T00:15:31;4.40;;;3.40;;
44456;SDS011;30159;49.316;8.558;2023-12-28T00:17:58;12.17;;;4.70;;
44456;SDS011;30159;49.316;8.558;2023-12-28T00:20:24;6.50;;;4.07;;
44456;SDS011;30159;49.316;8.558;2023-12-28T00:22:52;11.43;;;4.47;;
44456;SDS011;30159;49.316;8.558;2023-12-28T00:25:19;3.13;;;2.77;;
44456;SDS011;30159;49.316;8.558;2023-12-28T00:27:45;3.53;;;3.20;;
44456;SDS011;30159;49.316;8.558;2023-12-28T00:30:12;13.27;;;3.90;;
44456;SDS011;30159;49.316;8.558;2023-12-28T00:32:39;6.07;;;3.40;;
44456;SDS011;30159;49.316;8.558;2023-12-28T00:35:08;4.27;;;3.30;;
44456;SDS011;30159;49.316;8.558;2023-12-28T00:37:35;7.17;;;3.67;;
44456;SDS011;30159;49.316;8.558;2023-12-28T00:40:03;6.50;;;3.90;;
44456;SDS011;30159;49.316;8.558;2023-12-28T00:42:30;7.67;;;3.60;;
44456;SDS011;30159;49.316;8.558;2023-12-28T00:44:57;4.93;;;3.80;;
44456;SDS011;30159;49.316;8.558;2023-12-28T00:47:24;5.17;;;4.53;;
44456;SDS011;30159;49.316;8.558;2023-12-28T00:49:51;8.80;;;3.90;;
44456;SDS011;30159;49.316;8.558;2023-12-28T00:52:16;14.00;;;4.70;;
44456;SDS011;30159;49.316;8.558;2023-12-28T00:54:43;10.40;;;4.67;;
44456;SDS011;30159;49.316;8.558;2023-12-28T00:57:11;8.50;;;4.03;;
44456;SDS011;30159;49.316;8.558;2023-12-28T00:59:38;5.70;;;4.50;;
44456;SDS011;30159;49.316;8.558;2023-12-28T01:02:04;3.07;;;2.83;;
44456;SDS011;30159;49.316;8.558;2023-12-28T01:04:31;6.50;;;4.37;;
44456;SDS011;30159;49.316;8.558;2023-12-28T01:06:57;7.73;;;4.20;;
44456;SDS011;30159;49.316;8.558;2023-12-28T01:09:27;4.80;;;3.40;;
44456;SDS011;30159;49.316;8.558;2023-12-28T01:11:53;15.23;;;4.03;;
44456;SDS011;30159;49.316;8.558;2023-12-28T01:14:21;5.40;;;3.30;;
44456;SDS011;30159;49.316;8.558;2023-12-28T01:16:48;5.83;;;3.90;;
44456;SDS011;30159;49.316;8.558;2023-12-28T01:19:15;4.70;;;4.17;;
44456;SDS011;30159;49.316;8.558;2023-12-28T01:21:41;5.37;;;4.00;;
44456;SDS011;30159;49.316;8.558;2023-12-28T01:24:08;4.40;;;3.77;;
44456;SDS011;30159;49.316;8.558;2023-12-28T01:26:35;5.20;;;3.90;;
44456;SDS011;30159;49.316;8.558;2023-12-28T01:29:02;7.10;;;4.93;;
44456;SDS011;30159;49.316;8.558;2023-12-28T01:31:30;7.07;;;4.03;;
44456;SDS011;30159;49.316;8.558;2023-12-28T01:33:57;3.70;;;3.40;;
44456;SDS011;30159;49.316;8.558;2023-12-28T01:36:23;3.60;;;2.97;;
44456;SDS011;30159;49.316;8.558;2023-12-28T01:38:51;8.63;;;4.10;;
44456;SDS011;30159;49.316;8.558;2023-12-28T01:41:17;4.40;;;3.70;;
44456;SDS011;30159;49.316;8.558;2023-12-28T01:43:44;5.03;;;4.03;;
44456;SDS011;30159;49.316;8.558;2023-12-28T01:46:13;5.13;;;4.63;;
44456;SDS011;30159;49.316;8.558;2023-12-28T01:48:45;6.93;;;3.93;;
44456;SDS011;30159;49.316;8.558;2023-12-28T01:51:14;7.27;;;4.40;;
44456;SDS011;30159;49.316;8.558;2023-12-28T01:53:41;4.03;;;3.00;;
44456;SDS011;30159;49.316;8.558;2023-12-28T01:56:09;3.93;;;3.47;;
44456;SDS011;30159;49.316;8.558;2023-12-28T01:58:36;5.97;;;3.50;;
44456;SDS011;30159;49.316;8.558;2023-12-28T02:01:05;5.97;;;2.73;;
44456;SDS011;30159;49.316;8.558;2023-12-28T02:03:32;4.97;;;2.77;;
44456;SDS011;30159;49.316;8.558;2023-12-28T02:06:01;4.03;;;3.73;;
44456;SDS011;30159;49.316;8.558;2023-12-28T02:08:28;6.73;;;3.67;;
44456;SDS011;30159;49.316;8.558;2023-12-28T02:10:55;9.53;;;3.17;;
44456;SDS011;30159;49.316;8.558;2023-12-28T02:13:21;3.33;;;3.00;;
44456;SDS011;30159;49.316;8.558;2023-12-28T02:15:49;3.50;;;3.00;;
44456;SDS011;30159;49.316;8.558;2023-12-28T02:18:21;3.67;;;3.37;;
44456;SDS011;30159;49.316;8.558;2023-12-28T02:20:52;3.17;;;2.87;;
44456;SDS011;30159;49.316;8.558;2023-12-28T02:23:21;4.07;;;3.50;;
44456;SDS011;30159;49.316;8.558;2023-12-28T02:25:49;2.80;;;2.53;;
44456;SDS011;30159;49.316;8.558;2023-12-28T02:28:16;2.40;;;2.10;;
44456;SDS011;30159;49.316;8.558;2023-12-28T02:30:42;4.17;;;1.97;;
44456;SDS011;30159;49.316;8.558;2023-12-28T02:33:11;6.60;;;2.30;;
44456;SDS011;30159;49.316;8.558;2023-12-28T02:35:42;2.07;;;1.97;;
44456;SDS011;30159;49.316;8.558;2023-12-28T02:38:14;3.83;;;2.10;;
44456;SDS011;30159;49.316;8.558;2023-12-28T02:40:43;3.80;;;2.03;;
44456;SDS011;30159;49.316;8.558;2023-12-28T02:43:12;1.80;;;1.70;;
44456;SDS011;30159;49.316;8.558;2023-12-28T02:45:39;1.97;;;1.77;;
44456;SDS011;30159;49.316;8.558;2023-12-28T02:48:06;3.20;;;1.80;;
44456;SDS011;30159;49.316;8.558;2023-12-28T02:50:33;2.20;;;1.50;;
44456;SDS011;30159;49.316;8.558;2023-12-28T02:53:00;2.30;;;1.30;;
44456;SDS011;30159;49.316;8.558;2023-12-28T02:55:27;2.50;;;1.40;;
44456;SDS011;30159;49.316;8.558;2023-12-28T02:57:55;2.17;;;1.97;;
44456;SDS011;30159;49.316;8.558;2023-12-28T03:00:25;2.40;;;2.07;;
44456;SDS011;30159;49.316;8.558;2023-12-28T03:02:52;1.63;;;1.50;;
44456;SDS011;30159;49.316;8.558;2023-12-28T03:05:19;1.60;;;1.50;;
44456;SDS011;30159;49.316;8.558;2023-12-28T03:07:45;4.20;;;1.90;;
44456;SDS011;30159;49.316;8.558;2023-12-28T03:10:12;1.43;;;1.33;;
44456;SDS011;30159;49.316;8.558;2023-12-28T03:12:38;3.93;;;1.27;;
44456;SDS011;30159;49.316;8.558;2023-12-28T03:15:05;1.50;;;1.37;;
44456;SDS011;30159;49.316;8.558;2023-12-28T03:17:34;1.33;;;1.00;;
44456;SDS011;30159;49.316;8.558;2023-12-28T03:20:01;1.37;;;1.20;;
44456;SDS011;30159;49.316;8.558;2023-12-28T03:22:29;1.70;;;1.50;;
44456;SDS011;30159;49.316;8.558;2023-12-28T03:24:55;2.23;;;1.43;;
44456;SDS011;30159;49.316;8.558;2023-12-28T03:27:22;1.33;;;1.20;;
44456;SDS011;30159;49.316;8.558;2023-12-28T03:29:48;2.73;;;1.83;;
44456;SDS011;30159;49.316;8.558;2023-12-28T03:32:15;4.10;;;1.40;;
44456;SDS011;30159;49.316;8.558;2023-12-28T03:34:43;1.17;;;1.07;;
44456;SDS011;30159;49.316;8.558;2023-12-28T03:37:09;2.07;;;1.20;;
44456;SDS011;30159;49.316;8.558;2023-12-28T03:39:37;1.93;;;1.20;;
44456;SDS011;30159;49.316;8.558;2023-12-28T03:42:04;1.53;;;1.20;;
44456;SDS011;30159;49.316;8.558;2023-12-28T03:44:30;1.10;;;0.93;;
44456;SDS011;30159;49.316;8.558;2023-12-28T03:46:57;1.43;;;1.33;;
44456;SDS011;30159;49.316;8.558;2023-12-28T03:49:25;1.43;;;1.33;;
44456;SDS011;30159;49.316;8.558;2023-12-28T03:51:53;1.40;;;1.30;;
44456;SDS011;30159;49.316;8.558;2023-12-28T03:54:20;1.30;;;1.20;;
44456;SDS011;30159;49.316;8.558;2023-12-28T03:56:46;1.43;;;1.10;;
44456;SDS011;30159;49.316;8.558;2023-12-28T03:59:13;1.27;;;1.00;;
44456;SDS011;30159;49.316;8.558;2023-12-28T04:01:41;1.10;;;1.00;;
44456;SDS011;30159;49.316;8.558;2023-12-28T04:04:08;1.50;;;1.40;;
44456;SDS011;30159;49.316;8.558;2023-12-28T04:06:35;1.40;;;1.20;;
44456;SDS011;30159;49.316;8.558;2023-12-28T04:09:03;2.53;;;1.00;;
44456;SDS011;30159;49.316;8.558;2023-12-28T04:11:29;2.10;;;1.03;;
44456;SDS011;30159;49.316;8.558;2023-12-28T04:13:56;4.00;;;1.10;;
44456;SDS011;30159;49.316;8.558;2023-12-28T04:16:22;0.90;;;0.87;;
44456;SDS011;30159;49.316;8.558;2023-12-28T04:18:49;1.10;;;1.00;;
44456;SDS011;30159;49.316;8.558;2023-12-28T04:21:16;1.37;;;1.20;;
44456;SDS011;30159;49.316;8.558;2023-12-28T04:23:42;1.03;;;0.90;;
44456;SDS011;30159;49.316;8.558;2023-12-28T04:26:10;1.90;;;0.90;;
44456;SDS011;30159;49.316;8.558;2023-12-28T04:28:37;1.07;;;0.80;;
44456;SDS011;30159;49.316;8.558;2023-12-28T04:31:03;1.00;;;0.83;;
44456;SDS011;30159;49.316;8.558;2023-12-28T04:33:31;1.13;;;1.00;;
44456;SDS011;30159;49.316;8.558;2023-12-28T04:36:00;0.90;;;0.80;;
44456;SDS011;30159;49.316;8.558;2023-12-28T04:38:28;3.50;;;0.93;;
44456;SDS011;30159;49.316;8.558;2023-12-28T04:40:55;0.90;;;0.80;;
44456;SDS011;30159;49.316;8.558;2023-12-28T04:43:23;1.00;;;0.90;;
44456;SDS011;30159;49.316;8.558;2023-12-28T04:45:49;1.40;;;0.87;;
44456;SDS011;30159;49.316;8.558;2023-12-28T04:48:16;1.07;;;0.90;;
44456;SDS011;30159;49.316;8.558;2023-12-28T04:50:46;1.40;;;1.00;;
44456;SDS011;30159;49.316;8.558;2023-12-28T04:53:13;1.07;;;0.90;;
44456;SDS011;30159;49.316;8.558;2023-12-28T04:55:39;1.30;;;1.00;;
44456;SDS011;30159;49.316;8.558;2023-12-28T04:58:06;1.00;;;0.90;;
44456;SDS011;30159;49.316;8.558;2023-12-28T05:00:34;1.20;;;0.80;;
44456;SDS011;30159;49.316;8.558;2023-12-28T05:03:00;1.10;;;0.87;;
44456;SDS011;30159;49.316;8.558;2023-12-28T05:05:27;1.00;;;0.73;;
44456;SDS011;30159;49.316;8.558;2023-12-28T05:07:54;1.23;;;1.10;;
44456;SDS011;30159;49.316;8.558;2023-12-28T05:10:20;1.30;;;1.00;;
44456;SDS011;30159;49.316;8.558;2023-12-28T05:12:47;1.57;;;1.10;;
44456;SDS011;30159;49.316;8.558;2023-12-28T05:15:13;1.10;;;0.90;;
44456;SDS011;30159;49.316;8.558;2023-12-28T05:17:42;1.30;;;1.10;;
44456;SDS011;30159;49.316;8.558;2023-12-28T05:20:08;1.30;;;1.20;;
44456;SDS011;30159;49.316;8.558;2023-12-28T05:22:35;1.93;;;1.10;;
44456;SDS011;30159;49.316;8.558;2023-12-28T05:25:02;2.60;;;0.97;;
44456;SDS011;30159;49.316;8.558;2023-12-28T05:27:30;1.27;;;1.10;;
44456;SDS011;30159;49.316;8.558;2023-12-28T05:29:56;3.07;;;1.07;;
44456;SDS011;30159;49.316;8.558;2023-12-28T05:32:23;0.97;;;0.87;;
44456;SDS011;30159;49.316;8.558;2023-12-28T05:34:51;1.67;;;1.23;;
44456;SDS011;30159;49.316;8.558;2023-12-28T05:37:17;1.10;;;1.00;;
44456;SDS011;30159;49.316;8.558;2023-12-28T05:39:44;1.53;;;1.17;;
44456;SDS011;30159;49.316;8.558;2023-12-28T05:42:10;1.20;;;1.10;;
44456;SDS011;30159;49.316;8.558;2023-12-28T05:44:37;1.40;;;1.03;;
44456;SDS011;30159;49.316;8.558;2023-12-28T05:47:04;1.20;;;1.10;;
44456;SDS011;30159;49.316;8.558;2023-12-28T05:49:30;1.90;;;1.10;;
44456;SDS011;30159;49.316;8.558;2023-12-28T05:51:58;1.00;;;0.90;;
44456;SDS011;30159;49.316;8.558;2023-12-28T05:54:25;1.20;;;1.10;;
44456;SDS011;30159;49.316;8.558;2023-12-28T05:56:52;1.03;;;0.93;;
44456;SDS011;30159;49.316;8.558;2023-12-28T05:59:18;1.30;;;1.13;;
44456;SDS011;30159;49.316;8.558;2023-12-28T06:01:46;1.10;;;0.90;;
44456;SDS011;30159;49.316;8.558;2023-12-28T06:04:13;1.50;;;1.10;;
44456;SDS011;30159;49.316;8.558;2023-12-28T06:06:40;1.07;;;0.90;;
44456;SDS011;30159;49.316;8.558;2023-12-28T06:09:08;1.10;;;1.00;;
44456;SDS011;30159;49.316;8.558;2023-12-28T06:11:34;1.87;;;0.90;;
44456;SDS011;30159;49.316;8.558;2023-12-28T06:14:01;1.10;;;0.97;;
44456;SDS011;30159;49.316;8.558;2023-12-28T06:16:27;1.30;;;1.20;;
44456;SDS011;30159;49.316;8.558;2023-12-28T06:18:57;1.20;;;1.00;;
44456;SDS011;30159;49.316;8.558;2023-12-28T06:21:24;1.00;;;0.80;;
44456;SDS011;30159;49.316;8.558;2023-12-28T06:23:51;0.93;;;0.80;;
44456;SDS011;30159;49.316;8.558;2023-12-28T06:26:19;3.13;;;0.97;;
44456;SDS011;30159;49.316;8.558;2023-12-28T06:28:45;0.70;;;0.70;;
44456;SDS011;30159;49.316;8.558;2023-12-28T06:31:12;2.00;;;1.10;;
44456;SDS011;30159;49.316;8.558;2023-12-28T06:33:38;1.27;;;1.00;;
44456;SDS011;30159;49.316;8.558;2023-12-28T06:36:05;1.00;;;0.90;;
44456;SDS011;30159;49.316;8.558;2023-12-28T06:38:32;1.53;;;1.10;;
44456;SDS011;30159;49.316;8.558;2023-12-28T06:40:59;1.20;;;0.80;;
44456;SDS011;30159;49.316;8.558;2023-12-28T06:43:27;1.27;;;1.10;;
44456;SDS011;30159;49.316;8.558;2023-12-28T06:45:54;1.53;;;1.07;;
44456;SDS011;30159;49.316;8.558;2023-12-28T06:48:20;1.30;;;1.00;;
44456;SDS011;30159;49.316;8.558;2023-12-28T06:50:47;1.47;;;1.00;;
44456;SDS011;30159;49.316;8.558;2023-12-28T06:53:13;1.23;;;1.00;;
44456;SDS011;30159;49.316;8.558;2023-12-28T06:55:40;2.33;;;1.10;;
44456;SDS011;30159;49.316;8.558;2023-12-28T06:58:06;0.90;;;0.80;;
44456;SDS011;30159;49.316;8.558;2023-12-28T07:00:34;1.10;;;1.00;;
44456;SDS011;30159;49.316;8.558;2023-12-28T07:03:01;0.90;;;0.70;;
44456;SDS011;30159;49.316;8.558;2023-12-28T07:05:28;1.00;;;0.90;;
44456;SDS011;30159;49.316;8.558;2023-12-28T07:07:54;1.53;;;1.10;;
44456;SDS011;30159;49.316;8.558;2023-12-28T07:10:21;2.70;;;1.10;;
44456;SDS011;30159;49.316;8.558;2023-12-28T07:12:47;0.97;;;0.83;;
44456;SDS011;30159;49.316;8.558;2023-12-28T07:15:14;1.50;;;1.00;;
44456;SDS011;30159;49.316;8.558;2023-12-28T07:17:42;1.93;;;1.00;;
44456;SDS011;30159;49.316;8.558;2023-12-28T07:20:09;1.00;;;0.90;;
44456;SDS011;30159;49.316;8.558;2023-12-28T07:22:36;1.00;;;0.90;;
44456;SDS011;30159;49.316;8.558;2023-12-28T07:25:03;1.30;;;1.20;;
44456;SDS011;30159;49.316;8.558;2023-12-28T07:27:31;1.00;;;0.90;;
44456;SDS011;30159;49.316;8.558;2023-12-28T07:30:00;4.57;;;1.00;;
44456;SDS011;30159;49.316;8.558;2023-12-28T07:32:26;1.33;;;1.20;;
44456;SDS011;30159;49.316;8.558;2023-12-28T07:34:56;1.10;;;1.00;;
44456;SDS011;30159;49.316;8.558;2023-12-28T07:37:24;1.20;;;1.10;;
44456;SDS011;30159;49.316;8.558;2023-12-28T07:39:50;2.13;;;1.10;;
44456;SDS011;30159;49.316;8.558;2023-12-28T07:42:17;5.10;;;1.00;;
44456;SDS011;30159;49.316;8.558;2023-12-28T07:44:44;1.10;;;1.00;;
44456;SDS011;30159;49.316;8.558;2023-12-28T07:47:10;4.33;;;1.10;;
44456;SDS011;30159;49.316;8.558;2023-12-28T07:49:37;1.47;;;1.33;;
44456;SDS011;30159;49.316;8.558;2023-12-28T07:52:06;1.20;;;0.90;;
44456;SDS011;30159;49.316;8.558;2023-12-28T07:54:33;1.00;;;0.80;;
44456;SDS011;30159;49.316;8.558;2023-12-28T07:56:59;1.30;;;0.90;;
44456;SDS011;30159;49.316;8.558;2023-12-28T07:59:26;1.00;;;0.90;;
44456;SDS011;30159;49.316;8.558;2023-12-28T08:01:53;1.00;;;0.90;;
44456;SDS011;30159;49.316;8.558;2023-12-28T08:04:20;1.10;;;0.80;;
44456;SDS011;30159;49.316;8.558;2023-12-28T08:06:47;1.33;;;1.00;;
44456;SDS011;30159;49.316;8.558;2023-12-28T08:09:14;1.10;;;1.00;;
44456;SDS011;30159;49.316;8.558;2023-12-28T08:11:41;1.10;;;0.90;;
44456;SDS011;30159;49.316;8.558;2023-12-28T08:14:08;0.97;;;0.87;;
44456;SDS011;30159;49.316;8.558;2023-12-28T08:16:34;1.40;;;1.03;;
44456;SDS011;30159;49.316;8.558;2023-12-28T08:19:01;1.00;;;0.90;;
44456;SDS011;30159;49.316;8.558;2023-12-28T08:21:28;1.47;;;1.00;;
44456;SDS011;30159;49.316;8.558;2023-12-28T08:23:55;1.03;;;0.90;;
44456;SDS011;30159;49.316;8.558;2023-12-28T08:26:23;1.30;;;1.17;;
44456;SDS011;30159;49.316;8.558;2023-12-28T08:28:49;2.50;;;0.87;;
44456;SDS011;30159;49.316;8.558;2023-12-28T08:31:16;0.93;;;0.80;;
44456;SDS011;30159;49.316;8.558;2023-12-28T08:33:43;1.30;;;1.20;;
44456;SDS011;30159;49.316;8.558;2023-12-28T08:36:10;1.13;;;1.03;;
44456;SDS011;30159;49.316;8.558;2023-12-28T08:38:37;3.63;;;0.90;;
44456;SDS011;30159;49.316;8.558;2023-12-28T08:41:04;3.57;;;1.03;;
44456;SDS011;30159;49.316;8.558;2023-12-28T08:43:35;1.40;;;1.17;;
44456;SDS011;30159;49.316;8.558;2023-12-28T08:46:02;2.70;;;1.10;;
44456;SDS011;30159;49.316;8.558;2023-12-28T08:48:29;1.13;;;1.03;;
44456;SDS011;30159;49.316;8.558;2023-12-28T08:50:55;1.00;;;0.90;;
44456;SDS011;30159;49.316;8.558;2023-12-28T08:53:22;1.10;;;0.80;;
44456;SDS011;30159;49.316;8.558;2023-12-28T08:55:48;1.00;;;0.90;;
44456;SDS011;30159;49.316;8.558;2023-12-28T08:58:15;1.20;;;1.10;;
44456;SDS011;30159;49.316;8.558;2023-12-28T09:00:43;1.30;;;1.20;;
44456;SDS011;30159;49.316;8.558;2023-12-28T09:03:10;1.57;;;1.10;;
44456;SDS011;30159;49.316;8.558;2023-12-28T09:05:37;1.67;;;0.90;;
44456;SDS011;30159;49.316;8.558;2023-12-28T09:08:04;1.63;;;1.20;;
44456;SDS011;30159;49.316;8.558;2023-12-28T09:10:31;1.23;;;1.10;;
44456;SDS011;30159;49.316;8.558;2023-12-28T09:12:58;1.73;;;1.40;;
44456;SDS011;30159;49.316;8.558;2023-12-28T09:15:24;1.80;;;1.07;;
44456;SDS011;30159;49.316;8.558;2023-12-28T09:17:52;1.10;;;1.00;;
44456;SDS011;30159;49.316;8.558;2023-12-28T09:20:19;1.10;;;0.87;;
44456;SDS011;30159;49.316;8.558;2023-12-28T09:22:46;1.40;;;1.30;;
44456;SDS011;30159;49.316;8.558;2023-12-28T09:25:18;1.17;;;0.90;;
44456;SDS011;30159;49.316;8.558;2023-12-28T09:27:45;1.20;;;1.10;;
44456;SDS011;30159;49.316;8.558;2023-12-28T09:30:11;1.67;;;1.00;;
44456;SDS011;30159;49.316;8.558;2023-12-28T09:32:38;1.10;;;1.00;;
44456;SDS011;30159;49.316;8.558;2023-12-28T09:35:07;1.60;;;0.90;;
44456;SDS011;30159;49.316;8.558;2023-12-28T09:37:34;1.83;;;1.10;;
44456;SDS011;30159;49.316;8.558;2023-12-28T09:40:01;1.37;;;1.10;;
44456;SDS011;30159;49.316;8.558;2023-12-28T09:42:29;1.60;;;1.30;;
44456;SDS011;30159;49.316;8.558;2023-12-28T09:45:04;1.33;;;1.20;;
44456;SDS011;30159;49.316;8.558;2023-12-28T09:47:32;1.37;;;1.20;;
44456;SDS011;30159;49.316;8.558;2023-12-28T09:49:59;1.50;;;1.10;;
44456;SDS011;30159;49.316;8.558;2023-12-28T09:52:27;1.30;;;1.20;;
44456;SDS011;30159;49.316;8.558;2023-12-28T09:54:53;2.67;;;1.20;;
44456;SDS011;30159;49.316;8.558;2023-12-28T09:57:20;2.10;;;1.30;;
44456;SDS011;30159;49.316;8.558;2023-12-28T09:59:46;1.67;;;1.23;;
44456;SDS011;30159;49.316;8.558;2023-12-28T10:02:14;1.10;;;1.00;;
44456;SDS011;30159;49.316;8.558;2023-12-28T10:04:42;6.50;;;1.30;;
44456;SDS011;30159;49.316;8.558;2023-12-28T10:07:08;1.33;;;1.23;;
44456;SDS011;30159;49.316;8.558;2023-12-28T10:09:36;1.30;;;1.10;;
44456;SDS011;30159;49.316;8.558;2023-12-28T10:12:03;1.60;;;1.40;;
44456;SDS011;30159;49.316;8.558;2023-12-28T10:14:31;1.40;;;1.30;;
44456;SDS011;30159;49.316;8.558;2023-12-28T10:16:58;1.60;;;1.50;;
44456;SDS011;30159;49.316;8.558;2023-12-28T10:19:24;1.23;;;1.10;;
44456;SDS011;30159;49.316;8.558;2023-12-28T10:21:51;1.70;;;1.60;;
44456;SDS011;30159;49.316;8.558;2023-12-28T10:24:18;1.67;;;1.50;;
44456;SDS011;30159;49.316;8.558;2023-12-28T10:26:47;2.40;;;1.50;;
44456;SDS011;30159;49.316;8.558;2023-12-28T10:29:14;3.73;;;1.60;;
44456;SDS011;30159;49.316;8.558;2023-12-28T10:31:41;1.47;;;1.37;;
44456;SDS011;30159;49.316;8.558;2023-12-28T10:34:10;1.40;;;1.30;;
44456;SDS011;30159;49.316;8.558;2023-12-28T10:36:36;1.53;;;1.43;;
44456;SDS011;30159;49.316;8.558;2023-12-28T10:39:05;2.27;;;1.70;;
44456;SDS011;30159;49.316;8.558;2023-12-28T10:41:36;1.57;;;1.47;;
44456;SDS011;30159;49.316;8.558;2023-12-28T10:44:05;2.70;;;1.90;;
44456;SDS011;30159;49.316;8.558;2023-12-28T10:46:33;1.80;;;1.50;;
44456;SDS011;30159;49.316;8.558;2023-12-28T10:49:12;1.87;;;1.50;;
44456;SDS011;30159;49.316;8.558;2023-12-28T10:51:42;2.70;;;1.40;;
44456;SDS011;30159;49.316;8.558;2023-12-28T10:54:14;1.50;;;1.40;;
44456;SDS011;30159;49.316;8.558;2023-12-28T10:56:50;2.50;;;1.63;;
44456;SDS011;30159;49.316;8.558;2023-12-28T10:59:26;2.30;;;1.60;;
44456;SDS011;30159;49.316;8.558;2023-12-28T11:02:01;1.40;;;1.30;;
44456;SDS011;30159;49.316;8.558;2023-12-28T11:04:31;2.67;;;1.43;;
44456;SDS011;30159;49.316;8.558;2023-12-28T11:07:03;1.90;;;1.30;;
44456;SDS011;30159;49.316;8.558;2023-12-28T11:09:33;1.83;;;1.50;;
44456;SDS011;30159;49.316;8.558;2023-12-28T11:12:02;1.33;;;1.23;;
44456;SDS011;30159;49.316;8.558;2023-12-28T11:14:34;1.40;;;1.30;;
44456;SDS011;30159;49.316;8.558;2023-12-28T11:17:01;1.97;;;1.60;;
44456;SDS011;30159;49.316;8.558;2023-12-28T11:19:28;1.40;;;1.30;;
44456;SDS011;30159;49.316;8.558;2023-12-28T11:21:56;2.83;;;1.73;;
44456;SDS011;30159;49.316;8.558;2023-12-28T11:24:25;2.20;;;2.00;;
44456;SDS011;30159;49.316;8.558;2023-12-28T11:26:53;1.90;;;1.60;;
44456;SDS011;30159;49.316;8.558;2023-12-28T11:29:20;2.30;;;1.80;;
44456;SDS011;30159;49.316;8.558;2023-12-28T11:31:51;1.53;;;1.37;;
44456;SDS011;30159;49.316;8.558;2023-12-28T11:34:18;2.13;;;1.73;;
44456;SDS011;30159;49.316;8.558;2023-12-28T11:36:46;3.00;;;1.93;;
44456;SDS011;30159;49.316;8.558;2023-12-28T11:39:19;4.17;;;2.03;;
44456;SDS011;30159;49.316;8.558;2023-12-28T11:41:52;1.53;;;1.43;;
44456;SDS011;30159;49.316;8.558;2023-12-28T11:44:26;2.10;;;1.57;;
44456;SDS011;30159;49.316;8.558;2023-12-28T11:46:54;2.07;;;1.40;;
44456;SDS011;30159;49.316;8.558;2023-12-28T11:49:25;1.57;;;1.47;;
44456;SDS011;30159;49.316;8.558;2023-12-28T11:51:54;2.00;;;1.70;;
44456;SDS011;30159;49.316;8.558;2023-12-28T11:54:21;1.80;;;1.57;;
44456;SDS011;30159;49.316;8.558;2023-12-28T11:56:48;1.63;;;1.23;;
44456;SDS011;30159;49.316;8.558;2023-12-28T11:59:15;3.20;;;1.50;;
44456;SDS011;30159;49.316;8.558;2023-12-28T12:01:42;1.87;;;1.23;;
44456;SDS011;30159;49.316;8.558;2023-12-28T12:04:10;1.63;;;1.53;;
44456;SDS011;30159;49.316;8.558;2023-12-28T12:06:37;1.40;;;1.20;;
44456;SDS011;30159;49.316;8.558;2023-12-28T12:09:05;1.77;;;1.50;;
44456;SDS011;30159;49.316;8.558;2023-12-28T12:11:32;1.60;;;1.40;;
44456;SDS011;30159;49.316;8.558;2023-12-28T12:13:59;4.73;;;2.23;;
44456;SDS011;30159;49.316;8.558;2023-12-28T12:16:25;2.67;;;1.73;;
44456;SDS011;30159;49.316;8.558;2023-12-28T12:18:52;3.83;;;2.00;;
44456;SDS011;30159;49.316;8.558;2023-12-28T12:21:24;2.30;;;2.10;;
44456;SDS011;30159;49.316;8.558;2023-12-28T12:23:51;2.93;;;2.23;;
44456;SDS011;30159;49.316;8.558;2023-12-28T12:26:17;1.70;;;1.60;;
44456;SDS011;30159;49.316;8.558;2023-12-28T12:28:44;2.23;;;1.40;;
44456;SDS011;30159;49.316;8.558;2023-12-28T12:31:11;2.00;;;1.57;;
44456;SDS011;30159;49.316;8.558;2023-12-28T12:33:38;1.40;;;1.30;;
44456;SDS011;30159;49.316;8.558;2023-12-28T12:36:06;1.50;;;1.30;;
44456;SDS011;30159;49.316;8.558;2023-12-28T12:38:34;2.90;;;1.57;;
44456;SDS011;30159;49.316;8.558;2023-12-28T12:41:01;5.07;;;1.80;;
44456;SDS011;30159;49.316;8.558;2023-12-28T12:43:28;1.80;;;1.70;;
44456;SDS011;30159;49.316;8.558;2023-12-28T12:45:54;2.53;;;1.50;;
44456;SDS011;30159;49.316;8.558;2023-12-28T12:48:21;1.97;;;1.60;;
44456;SDS011;30159;49.316;8.558;2023-12-28T12:50:48;1.70;;;1.43;;
44456;SDS011;30159;49.316;8.558;2023-12-28T12:53:15;1.93;;;1.83;;
44456;SDS011;30159;49.316;8.558;2023-12-28T12:55:43;1.90;;;1.70;;
44456;SDS011;30159;49.316;8.558;2023-12-28T12:58:11;2.40;;;2.20;;
44456;SDS011;30159;49.316;8.558;2023-12-28T13:00:39;2.60;;;2.13;;
44456;SDS011;30159;49.316;8.558;2023-12-28T13:03:07;2.73;;;1.53;;
44456;SDS011;30159;49.316;8.558;2023-12-28T13:05:34;1.97;;;1.70;;
44456;SDS011;30159;49.316;8.558;2023-12-28T13:08:02;2.33;;;2.23;;
44456;SDS011;30159;49.316;8.558;2023-12-28T13:10:29;3.80;;;2.13;;
44456;SDS011;30159;49.316;8.558;2023-12-28T13:12:57;2.50;;;2.03;;
44456;SDS011;30159;49.316;8.558;2023-12-28T13:15:26;3.40;;;2.43;;
44456;SDS011;30159;49.316;8.558;2023-12-28T13:17:52;3.47;;;2.33;;
44456;SDS011;30159;49.316;8.558;2023-12-28T13:20:19;2.70;;;1.70;;
44456;SDS011;30159;49.316;8.558;2023-12-28T13:22:46;1.70;;;1.60;;
44456;SDS011;30159;49.316;8.558;2023-12-28T13:25:13;2.87;;;2.00;;
44456;SDS011;30159;49.316;8.558;2023-12-28T13:27:40;1.67;;;1.47;;
44456;SDS011;30159;49.316;8.558;2023-12-28T13:30:09;3.00;;;1.73;;
44456;SDS011;30159;49.316;8.558;2023-12-28T13:32:37;1.53;;;1.27;;
44456;SDS011;30159;49.316;8.558;2023-12-28T13:35:04;1.63;;;1.10;;
44456;SDS011;30159;49.316;8.558;2023-12-28T13:37:31;4.93;;;1.20;;
44456;SDS011;30159;49.316;8.558;2023-12-28T13:39:58;1.37;;;1.10;;
44456;SDS011;30159;49.316;8.558;2023-12-28T13:42:25;1.70;;;1.07;;
44456;SDS011;30159;49.316;8.558;2023-12-28T13:44:52;1.77;;;1.40;;
44456;SDS011;30159;49.316;8.558;2023-12-28T13:47:20;2.73;;;1.53;;
44456;SDS011;30159;49.316;8.558;2023-12-28T13:49:47;1.60;;;1.20;;
44456;SDS011;30159;49.316;8.558;2023-12-28T13:52:13;1.50;;;1.13;;
44456;SDS011;30159;49.316;8.558;2023-12-28T13:54:40;1.50;;;1.17;;
44456;SDS011;30159;49.316;8.558;2023-12-28T13:57:07;1.60;;;1.50;;
44456;SDS011;30159;49.316;8.558;2023-12-28T13:59:34;2.00;;;1.60;;
44456;SDS011;30159;49.316;8.558;2023-12-28T14:02:00;1.47;;;1.37;;
44456;SDS011;30159;49.316;8.558;2023-12-28T14:04:29;1.53;;;1.13;;
44456;SDS011;30159;49.316;8.558;2023-12-28T14:06:56;2.13;;;1.67;;
44456;SDS011;30159;49.316;8.558;2023-12-28T14:09:22;1.97;;;1.60;;
44456;SDS011;30159;49.316;8.558;2023-12-28T14:11:49;3.80;;;1.43;;
44456;SDS011;30159;49.316;8.558;2023-12-28T14:14:16;2.40;;;1.80;;
44456;SDS011;30159;49.316;8.558;2023-12-28T14:16:42;1.50;;;1.40;;
44456;SDS011;30159;49.316;8.558;2023-12-28T14:19:09;1.60;;;1.50;;
44456;SDS011;30159;49.316;8.558;2023-12-28T14:21:38;1.20;;;1.10;;
44456;SDS011;30159;49.316;8.558;2023-12-28T14:24:05;1.40;;;1.03;;
44456;SDS011;30159;49.316;8.558;2023-12-28T14:26:33;2.20;;;1.07;;
44456;SDS011;30159;49.316;8.558;2023-12-28T14:29:01;1.33;;;0.90;;
44456;SDS011;30159;49.316;8.558;2023-12-28T14:31:30;1.50;;;1.07;;
44456;SDS011;30159;49.316;8.558;2023-12-28T14:33:57;2.70;;;1.20;;
44456;SDS011;30159;49.316;8.558;2023-12-28T14:36:25;1.50;;;1.00;;
44456;SDS011;30159;49.316;8.558;2023-12-28T14:38:58;1.47;;;1.00;;
44456;SDS011;30159;49.316;8.558;2023-12-28T14:41:24;1.30;;;1.20;;
44456;SDS011;30159;49.316;8.558;2023-12-28T14:43:51;2.13;;;1.33;;
44456;SDS011;30159;49.316;8.558;2023-12-28T14:46:18;1.40;;;1.00;;
44456;SDS011;30159;49.316;8.558;2023-12-28T14:48:45;1.20;;;1.10;;